sensor_id;sensor_type;location;lat;lon;timestamp;P1;durP1;ratioP1;P2;durP2;ratioP2
74660;SDS011;63191;39.566;2.654;2023-07-31T00:01:26;6.50;;;2.30;;
74660;SDS011;63191;39.566;2.654;2023-07-31T00:03:52;8.20;;;2.30;;
74660;SDS011;63191;39.566;2.654;2023-07-31T00:06:17;6.80;;;2.30;;
74660;SDS011;63191;39.566;2.654;2023-07-31T00:08:43;6.20;;;2.20;;
74660;SDS011;63191;39.566;2.654;2023-07-31T00:11:09;5.70;;;1.90;;
74660;SDS011;63191;39.566;2.654;2023-07-31T00:13:34;7.50;;;2.10;;
74660;SDS011;63191;39.566;2.654;2023-07-31T00:16:00;7.80;;;2.50;;
74660;SDS011;63191;39.566;2.654;2023-07-31T00:18:26;6.60;;;2.40;;
74660;SDS011;63191;39.566;2.654;2023-07-31T00:20:51;4.90;;;2.00;;
74660;SDS011;63191;39.566;2.654;2023-07-31T00:23:17;7.70;;;2.30;;
74660;SDS011;63191;39.566;2.654;2023-07-31T00:25:43;8.30;;;2.30;;
74660;SDS011;63191;39.566;2.654;2023-07-31T00:28:08;9.30;;;2.10;;
74660;SDS011;63191;39.566;2.654;2023-07-31T00:30:34;7.10;;;2.10;;
74660;SDS011;63191;39.566;2.654;2023-07-31T00:33:00;6.30;;;2.00;;
74660;SDS011;63191;39.566;2.654;2023-07-31T00:35:25;8.70;;;2.40;;
74660;SDS011;63191;39.566;2.654;2023-07-31T00:37:51;6.10;;;2.30;;
74660;SDS011;63191;39.566;2.654;2023-07-31T00:40:17;6.50;;;2.10;;
74660;SDS011;63191;39.566;2.654;2023-07-31T00:42:42;8.40;;;2.10;;
74660;SDS011;63191;39.566;2.654;2023-07-31T00:45:09;8.30;;;3.10;;
74660;SDS011;63191;39.566;2.654;2023-07-31T00:47:34;9.60;;;3.30;;
74660;SDS011;63191;39.566;2.654;2023-07-31T00:50:00;6.60;;;3.10;;
74660;SDS011;63191;39.566;2.654;2023-07-31T00:52:26;6.70;;;3.10;;
74660;SDS011;63191;39.566;2.654;2023-07-31T00:54:52;8.20;;;3.70;;
74660;SDS011;63191;39.566;2.654;2023-07-31T00:57:18;9.00;;;4.40;;
74660;SDS011;63191;39.566;2.654;2023-07-31T00:59:43;9.80;;;3.80;;
74660;SDS011;63191;39.566;2.654;2023-07-31T01:02:09;8.60;;;3.20;;
74660;SDS011;63191;39.566;2.654;2023-07-31T01:04:35;8.90;;;3.10;;
74660;SDS011;63191;39.566;2.654;2023-07-31T01:07:11;8.30;;;3.40;;
74660;SDS011;63191;39.566;2.654;2023-07-31T01:12:15;7.30;;;3.30;;
74660;SDS011;63191;39.566;2.654;2023-07-31T01:15:11;7.30;;;3.40;;
74660;SDS011;63191;39.566;2.654;2023-07-31T01:17:37;8.90;;;3.60;;
74660;SDS011;63191;39.566;2.654;2023-07-31T01:20:08;7.70;;;3.70;;
74660;SDS011;63191;39.566;2.654;2023-07-31T01:29:06;8.60;;;3.20;;
74660;SDS011;63191;39.566;2.654;2023-07-31T01:32:01;8.50;;;3.40;;
74660;SDS011;63191;39.566;2.654;2023-07-31T01:34:29;7.80;;;3.40;;
74660;SDS011;63191;39.566;2.654;2023-07-31T01:36:56;8.10;;;4.00;;
74660;SDS011;63191;39.566;2.654;2023-07-31T01:39:23;9.00;;;3.50;;
74660;SDS011;63191;39.566;2.654;2023-07-31T01:41:49;9.10;;;3.30;;
74660;SDS011;63191;39.566;2.654;2023-07-31T01:44:15;8.70;;;3.30;;
74660;SDS011;63191;39.566;2.654;2023-07-31T01:46:41;7.60;;;3.40;;
74660;SDS011;63191;39.566;2.654;2023-07-31T01:49:07;7.20;;;3.40;;
74660;SDS011;63191;39.566;2.654;2023-07-31T01:51:33;9.50;;;3.50;;
74660;SDS011;63191;39.566;2.654;2023-07-31T01:54:02;7.50;;;3.00;;
74660;SDS011;63191;39.566;2.654;2023-07-31T01:56:28;7.30;;;3.10;;
74660;SDS011;63191;39.566;2.654;2023-07-31T01:58:54;7.50;;;3.30;;
74660;SDS011;63191;39.566;2.654;2023-07-31T02:01:20;7.10;;;3.30;;
74660;SDS011;63191;39.566;2.654;2023-07-31T02:03:46;7.30;;;3.40;;
74660;SDS011;63191;39.566;2.654;2023-07-31T02:06:11;10.00;;;3.30;;
74660;SDS011;63191;39.566;2.654;2023-07-31T02:08:37;9.60;;;3.50;;
74660;SDS011;63191;39.566;2.654;2023-07-31T02:11:04;9.60;;;3.60;;
74660;SDS011;63191;39.566;2.654;2023-07-31T02:13:29;6.80;;;3.30;;
74660;SDS011;63191;39.566;2.654;2023-07-31T02:15:55;7.90;;;3.60;;
74660;SDS011;63191;39.566;2.654;2023-07-31T02:18:21;7.60;;;3.20;;
74660;SDS011;63191;39.566;2.654;2023-07-31T02:20:52;7.20;;;3.00;;
74660;SDS011;63191;39.566;2.654;2023-07-31T02:23:20;7.60;;;3.60;;
74660;SDS011;63191;39.566;2.654;2023-07-31T02:25:46;9.70;;;3.50;;
74660;SDS011;63191;39.566;2.654;2023-07-31T02:28:12;8.50;;;3.70;;
74660;SDS011;63191;39.566;2.654;2023-07-31T02:30:38;8.80;;;3.50;;
74660;SDS011;63191;39.566;2.654;2023-07-31T02:33:04;9.20;;;3.80;;
74660;SDS011;63191;39.566;2.654;2023-07-31T02:35:31;8.60;;;3.80;;
74660;SDS011;63191;39.566;2.654;2023-07-31T02:37:56;9.00;;;4.40;;
74660;SDS011;63191;39.566;2.654;2023-07-31T02:40:22;9.20;;;4.00;;
74660;SDS011;63191;39.566;2.654;2023-07-31T02:42:48;8.80;;;4.20;;
74660;SDS011;63191;39.566;2.654;2023-07-31T02:45:14;10.80;;;4.30;;
74660;SDS011;63191;39.566;2.654;2023-07-31T02:47:40;10.10;;;4.30;;
74660;SDS011;63191;39.566;2.654;2023-07-31T02:50:06;9.90;;;4.20;;
74660;SDS011;63191;39.566;2.654;2023-07-31T02:52:32;8.70;;;4.50;;
74660;SDS011;63191;39.566;2.654;2023-07-31T02:54:58;10.60;;;4.70;;
74660;SDS011;63191;39.566;2.654;2023-07-31T02:57:24;9.30;;;4.40;;
74660;SDS011;63191;39.566;2.654;2023-07-31T02:59:49;9.20;;;4.50;;
74660;SDS011;63191;39.566;2.654;2023-07-31T03:02:15;11.40;;;4.70;;
74660;SDS011;63191;39.566;2.654;2023-07-31T03:04:41;9.40;;;4.40;;
74660;SDS011;63191;39.566;2.654;2023-07-31T03:07:07;7.80;;;4.20;;
74660;SDS011;63191;39.566;2.654;2023-07-31T03:09:32;10.20;;;4.30;;
74660;SDS011;63191;39.566;2.654;2023-07-31T03:11:58;10.30;;;4.70;;
74660;SDS011;63191;39.566;2.654;2023-07-31T03:14:24;9.20;;;4.30;;
74660;SDS011;63191;39.566;2.654;2023-07-31T03:16:52;9.50;;;4.30;;
74660;SDS011;63191;39.566;2.654;2023-07-31T03:19:18;8.80;;;4.20;;
74660;SDS011;63191;39.566;2.654;2023-07-31T03:21:43;10.70;;;4.30;;
74660;SDS011;63191;39.566;2.654;2023-07-31T03:24:09;10.70;;;4.20;;
74660;SDS011;63191;39.566;2.654;2023-07-31T03:26:35;9.70;;;4.10;;
74660;SDS011;63191;39.566;2.654;2023-07-31T03:29:02;8.70;;;4.30;;
74660;SDS011;63191;39.566;2.654;2023-07-31T03:31:27;9.10;;;4.20;;
74660;SDS011;63191;39.566;2.654;2023-07-31T03:33:53;9.00;;;4.10;;
74660;SDS011;63191;39.566;2.654;2023-07-31T03:36:19;10.20;;;4.30;;
74660;SDS011;63191;39.566;2.654;2023-07-31T03:38:46;9.80;;;4.50;;
74660;SDS011;63191;39.566;2.654;2023-07-31T03:41:12;9.50;;;4.70;;
74660;SDS011;63191;39.566;2.654;2023-07-31T03:43:37;7.70;;;3.90;;
74660;SDS011;63191;39.566;2.654;2023-07-31T03:46:04;9.80;;;3.90;;
74660;SDS011;63191;39.566;2.654;2023-07-31T03:48:30;7.90;;;4.20;;
74660;SDS011;63191;39.566;2.654;2023-07-31T03:50:56;11.20;;;5.20;;
74660;SDS011;63191;39.566;2.654;2023-07-31T03:53:21;10.50;;;4.70;;
74660;SDS011;63191;39.566;2.654;2023-07-31T03:55:47;8.80;;;4.50;;
74660;SDS011;63191;39.566;2.654;2023-07-31T03:58:13;8.60;;;4.50;;
74660;SDS011;63191;39.566;2.654;2023-07-31T04:00:40;9.70;;;3.90;;
74660;SDS011;63191;39.566;2.654;2023-07-31T04:03:06;8.70;;;4.60;;
74660;SDS011;63191;39.566;2.654;2023-07-31T04:05:32;9.00;;;4.70;;
74660;SDS011;63191;39.566;2.654;2023-07-31T04:07:58;11.10;;;4.50;;
74660;SDS011;63191;39.566;2.654;2023-07-31T04:10:24;10.00;;;4.70;;
74660;SDS011;63191;39.566;2.654;2023-07-31T04:12:49;8.80;;;4.50;;
74660;SDS011;63191;39.566;2.654;2023-07-31T04:15:15;9.90;;;4.90;;
74660;SDS011;63191;39.566;2.654;2023-07-31T04:17:41;8.90;;;4.70;;
74660;SDS011;63191;39.566;2.654;2023-07-31T04:20:07;9.30;;;4.60;;
74660;SDS011;63191;39.566;2.654;2023-07-31T04:22:34;10.90;;;4.40;;
74660;SDS011;63191;39.566;2.654;2023-07-31T04:24:59;11.00;;;4.20;;
74660;SDS011;63191;39.566;2.654;2023-07-31T04:27:25;10.50;;;4.60;;
74660;SDS011;63191;39.566;2.654;2023-07-31T04:29:51;10.50;;;4.30;;
74660;SDS011;63191;39.566;2.654;2023-07-31T04:32:16;11.30;;;4.40;;
74660;SDS011;63191;39.566;2.654;2023-07-31T04:34:44;10.40;;;4.60;;
74660;SDS011;63191;39.566;2.654;2023-07-31T04:37:10;13.50;;;4.70;;
74660;SDS011;63191;39.566;2.654;2023-07-31T04:39:36;9.30;;;4.00;;
74660;SDS011;63191;39.566;2.654;2023-07-31T04:42:01;10.50;;;4.60;;
74660;SDS011;63191;39.566;2.654;2023-07-31T04:44:27;9.40;;;4.00;;
74660;SDS011;63191;39.566;2.654;2023-07-31T04:46:53;10.40;;;4.10;;
74660;SDS011;63191;39.566;2.654;2023-07-31T04:49:19;12.00;;;5.10;;
74660;SDS011;63191;39.566;2.654;2023-07-31T04:51:44;8.20;;;4.10;;
74660;SDS011;63191;39.566;2.654;2023-07-31T04:54:10;10.30;;;4.50;;
74660;SDS011;63191;39.566;2.654;2023-07-31T04:56:38;11.00;;;4.20;;
74660;SDS011;63191;39.566;2.654;2023-07-31T04:59:04;7.30;;;3.70;;
74660;SDS011;63191;39.566;2.654;2023-07-31T05:01:29;11.20;;;3.90;;
74660;SDS011;63191;39.566;2.654;2023-07-31T05:03:55;9.10;;;3.90;;
74660;SDS011;63191;39.566;2.654;2023-07-31T05:10:02;10.40;;;4.20;;
74660;SDS011;63191;39.566;2.654;2023-07-31T05:12:29;7.30;;;3.90;;
74660;SDS011;63191;39.566;2.654;2023-07-31T05:14:55;9.40;;;3.70;;
74660;SDS011;63191;39.566;2.654;2023-07-31T05:17:21;7.80;;;3.70;;
74660;SDS011;63191;39.566;2.654;2023-07-31T05:19:46;9.20;;;3.50;;
74660;SDS011;63191;39.566;2.654;2023-07-31T05:22:12;9.40;;;3.80;;
74660;SDS011;63191;39.566;2.654;2023-07-31T05:24:38;8.30;;;3.60;;
74660;SDS011;63191;39.566;2.654;2023-07-31T05:27:04;9.70;;;3.90;;
74660;SDS011;63191;39.566;2.654;2023-07-31T05:29:30;10.20;;;4.00;;
74660;SDS011;63191;39.566;2.654;2023-07-31T05:31:56;7.50;;;3.80;;
74660;SDS011;63191;39.566;2.654;2023-07-31T05:34:21;7.80;;;3.40;;
74660;SDS011;63191;39.566;2.654;2023-07-31T05:36:47;9.30;;;3.80;;
74660;SDS011;63191;39.566;2.654;2023-07-31T05:39:13;10.50;;;4.10;;
74660;SDS011;63191;39.566;2.654;2023-07-31T05:41:40;11.50;;;3.90;;
74660;SDS011;63191;39.566;2.654;2023-07-31T05:44:06;8.60;;;3.70;;
74660;SDS011;63191;39.566;2.654;2023-07-31T05:46:32;11.30;;;3.60;;
74660;SDS011;63191;39.566;2.654;2023-07-31T05:48:58;7.70;;;3.50;;
74660;SDS011;63191;39.566;2.654;2023-07-31T05:51:26;9.90;;;3.90;;
74660;SDS011;63191;39.566;2.654;2023-07-31T05:53:53;8.20;;;3.70;;
74660;SDS011;63191;39.566;2.654;2023-07-31T05:56:18;8.70;;;3.10;;
74660;SDS011;63191;39.566;2.654;2023-07-31T05:58:44;11.70;;;3.80;;
74660;SDS011;63191;39.566;2.654;2023-07-31T06:01:10;7.10;;;3.50;;
74660;SDS011;63191;39.566;2.654;2023-07-31T06:03:35;9.40;;;4.10;;
74660;SDS011;63191;39.566;2.654;2023-07-31T06:06:02;10.20;;;3.50;;
74660;SDS011;63191;39.566;2.654;2023-07-31T06:08:28;11.50;;;4.50;;
74660;SDS011;63191;39.566;2.654;2023-07-31T06:10:54;11.30;;;4.20;;
74660;SDS011;63191;39.566;2.654;2023-07-31T06:13:20;8.80;;;3.80;;
74660;SDS011;63191;39.566;2.654;2023-07-31T06:15:46;9.40;;;3.90;;
74660;SDS011;63191;39.566;2.654;2023-07-31T06:18:11;8.50;;;3.80;;
74660;SDS011;63191;39.566;2.654;2023-07-31T06:20:38;9.70;;;3.60;;
74660;SDS011;63191;39.566;2.654;2023-07-31T06:23:06;8.60;;;3.60;;
74660;SDS011;63191;39.566;2.654;2023-07-31T06:25:31;7.70;;;3.90;;
74660;SDS011;63191;39.566;2.654;2023-07-31T06:27:58;7.20;;;3.80;;
74660;SDS011;63191;39.566;2.654;2023-07-31T06:30:24;9.70;;;3.70;;
74660;SDS011;63191;39.566;2.654;2023-07-31T06:32:50;9.30;;;4.20;;
74660;SDS011;63191;39.566;2.654;2023-07-31T06:35:15;7.80;;;3.80;;
74660;SDS011;63191;39.566;2.654;2023-07-31T06:37:41;8.70;;;3.60;;
74660;SDS011;63191;39.566;2.654;2023-07-31T06:40:09;11.50;;;3.90;;
74660;SDS011;63191;39.566;2.654;2023-07-31T06:42:37;14.10;;;4.40;;
74660;SDS011;63191;39.566;2.654;2023-07-31T06:45:04;9.20;;;3.90;;
74660;SDS011;63191;39.566;2.654;2023-07-31T06:47:30;8.70;;;3.90;;
74660;SDS011;63191;39.566;2.654;2023-07-31T06:49:57;8.50;;;3.50;;
74660;SDS011;63191;39.566;2.654;2023-07-31T06:52:23;9.20;;;3.90;;
74660;SDS011;63191;39.566;2.654;2023-07-31T06:55:04;11.50;;;4.00;;
74660;SDS011;63191;39.566;2.654;2023-07-31T06:57:54;7.50;;;3.70;;
74660;SDS011;63191;39.566;2.654;2023-07-31T07:00:21;13.50;;;3.60;;
74660;SDS011;63191;39.566;2.654;2023-07-31T07:02:48;9.20;;;4.00;;
74660;SDS011;63191;39.566;2.654;2023-07-31T07:05:15;9.00;;;4.10;;
74660;SDS011;63191;39.566;2.654;2023-07-31T07:07:41;7.90;;;3.70;;
74660;SDS011;63191;39.566;2.654;2023-07-31T07:10:08;9.30;;;3.50;;
74660;SDS011;63191;39.566;2.654;2023-07-31T07:12:34;9.60;;;3.30;;
74660;SDS011;63191;39.566;2.654;2023-07-31T07:15:01;10.80;;;3.80;;
74660;SDS011;63191;39.566;2.654;2023-07-31T07:17:28;7.20;;;3.30;;
74660;SDS011;63191;39.566;2.654;2023-07-31T07:19:58;7.90;;;3.20;;
74660;SDS011;63191;39.566;2.654;2023-07-31T07:22:25;8.70;;;3.70;;
74660;SDS011;63191;39.566;2.654;2023-07-31T07:24:52;7.60;;;3.10;;
74660;SDS011;63191;39.566;2.654;2023-07-31T07:27:18;7.70;;;3.50;;
74660;SDS011;63191;39.566;2.654;2023-07-31T07:29:45;8.60;;;3.40;;
74660;SDS011;63191;39.566;2.654;2023-07-31T07:32:12;6.40;;;3.30;;
74660;SDS011;63191;39.566;2.654;2023-07-31T07:34:38;8.80;;;3.30;;
74660;SDS011;63191;39.566;2.654;2023-07-31T07:37:04;7.70;;;3.80;;
74660;SDS011;63191;39.566;2.654;2023-07-31T07:39:30;9.20;;;3.50;;
74660;SDS011;63191;39.566;2.654;2023-07-31T07:41:56;11.20;;;3.90;;
74660;SDS011;63191;39.566;2.654;2023-07-31T07:44:21;9.50;;;3.60;;
74660;SDS011;63191;39.566;2.654;2023-07-31T07:46:47;9.90;;;3.90;;
74660;SDS011;63191;39.566;2.654;2023-07-31T07:49:13;7.40;;;3.60;;
74660;SDS011;63191;39.566;2.654;2023-07-31T07:51:38;10.60;;;3.40;;
74660;SDS011;63191;39.566;2.654;2023-07-31T07:54:05;7.30;;;3.80;;
74660;SDS011;63191;39.566;2.654;2023-07-31T07:56:33;8.80;;;3.70;;
74660;SDS011;63191;39.566;2.654;2023-07-31T07:58:58;6.60;;;3.60;;
74660;SDS011;63191;39.566;2.654;2023-07-31T08:01:24;8.90;;;3.70;;
74660;SDS011;63191;39.566;2.654;2023-07-31T08:03:50;8.80;;;3.70;;
74660;SDS011;63191;39.566;2.654;2023-07-31T08:06:16;8.50;;;4.00;;
74660;SDS011;63191;39.566;2.654;2023-07-31T08:08:42;7.90;;;3.70;;
74660;SDS011;63191;39.566;2.654;2023-07-31T08:11:08;8.60;;;3.70;;
74660;SDS011;63191;39.566;2.654;2023-07-31T08:13:34;10.30;;;3.80;;
74660;SDS011;63191;39.566;2.654;2023-07-31T08:16:02;8.30;;;4.10;;
74660;SDS011;63191;39.566;2.654;2023-07-31T08:18:30;7.60;;;3.70;;
74660;SDS011;63191;39.566;2.654;2023-07-31T08:20:57;7.20;;;3.70;;
74660;SDS011;63191;39.566;2.654;2023-07-31T08:23:23;7.40;;;3.70;;
74660;SDS011;63191;39.566;2.654;2023-07-31T08:25:48;7.90;;;3.40;;
74660;SDS011;63191;39.566;2.654;2023-07-31T08:28:16;7.00;;;4.00;;
74660;SDS011;63191;39.566;2.654;2023-07-31T08:30:42;9.70;;;4.00;;
74660;SDS011;63191;39.566;2.654;2023-07-31T08:33:08;7.90;;;3.70;;
74660;SDS011;63191;39.566;2.654;2023-07-31T08:35:34;7.60;;;4.30;;
74660;SDS011;63191;39.566;2.654;2023-07-31T08:38:01;8.00;;;3.40;;
74660;SDS011;63191;39.566;2.654;2023-07-31T08:40:28;6.30;;;3.80;;
74660;SDS011;63191;39.566;2.654;2023-07-31T08:42:55;7.50;;;3.20;;
74660;SDS011;63191;39.566;2.654;2023-07-31T08:45:28;7.90;;;3.50;;
74660;SDS011;63191;39.566;2.654;2023-07-31T08:47:57;7.90;;;3.20;;
74660;SDS011;63191;39.566;2.654;2023-07-31T08:50:24;11.30;;;3.50;;
74660;SDS011;63191;39.566;2.654;2023-07-31T08:52:51;7.30;;;3.60;;
74660;SDS011;63191;39.566;2.654;2023-07-31T08:55:18;6.90;;;3.20;;
74660;SDS011;63191;39.566;2.654;2023-07-31T08:57:51;8.90;;;3.50;;
74660;SDS011;63191;39.566;2.654;2023-07-31T09:00:20;8.70;;;4.00;;
74660;SDS011;63191;39.566;2.654;2023-07-31T09:02:54;8.60;;;3.30;;
74660;SDS011;63191;39.566;2.654;2023-07-31T09:05:23;8.40;;;3.90;;
74660;SDS011;63191;39.566;2.654;2023-07-31T09:07:51;7.00;;;3.60;;
74660;SDS011;63191;39.566;2.654;2023-07-31T09:10:17;13.10;;;3.60;;
74660;SDS011;63191;39.566;2.654;2023-07-31T09:12:43;7.90;;;3.60;;
74660;SDS011;63191;39.566;2.654;2023-07-31T09:15:11;6.80;;;3.40;;
74660;SDS011;63191;39.566;2.654;2023-07-31T09:17:37;7.80;;;3.80;;
74660;SDS011;63191;39.566;2.654;2023-07-31T09:20:19;7.00;;;3.60;;
74660;SDS011;63191;39.566;2.654;2023-07-31T09:22:48;7.40;;;3.50;;
74660;SDS011;63191;39.566;2.654;2023-07-31T09:25:15;8.80;;;3.70;;
74660;SDS011;63191;39.566;2.654;2023-07-31T09:30:20;7.00;;;3.70;;
74660;SDS011;63191;39.566;2.654;2023-07-31T09:32:48;7.00;;;3.50;;
74660;SDS011;63191;39.566;2.654;2023-07-31T09:35:27;8.30;;;3.60;;
74660;SDS011;63191;39.566;2.654;2023-07-31T09:40:32;7.10;;;3.90;;
74660;SDS011;63191;39.566;2.654;2023-07-31T09:43:04;5.90;;;3.40;;
74660;SDS011;63191;39.566;2.654;2023-07-31T09:45:35;8.00;;;3.30;;
74660;SDS011;63191;39.566;2.654;2023-07-31T09:48:03;7.10;;;3.20;;
74660;SDS011;63191;39.566;2.654;2023-07-31T09:50:36;9.00;;;4.10;;
74660;SDS011;63191;39.566;2.654;2023-07-31T09:53:03;10.50;;;3.70;;
74660;SDS011;63191;39.566;2.654;2023-07-31T09:55:30;7.80;;;3.80;;
74660;SDS011;63191;39.566;2.654;2023-07-31T09:57:57;9.40;;;3.70;;
74660;SDS011;63191;39.566;2.654;2023-07-31T10:00:23;7.40;;;3.70;;
74660;SDS011;63191;39.566;2.654;2023-07-31T10:02:53;6.60;;;3.50;;
74660;SDS011;63191;39.566;2.654;2023-07-31T10:05:19;7.60;;;3.60;;
74660;SDS011;63191;39.566;2.654;2023-07-31T10:07:51;9.00;;;3.70;;
74660;SDS011;63191;39.566;2.654;2023-07-31T10:10:20;8.60;;;3.50;;
74660;SDS011;63191;39.566;2.654;2023-07-31T10:12:48;8.60;;;3.50;;
74660;SDS011;63191;39.566;2.654;2023-07-31T10:15:16;8.00;;;3.80;;
74660;SDS011;63191;39.566;2.654;2023-07-31T10:17:42;8.70;;;3.30;;
74660;SDS011;63191;39.566;2.654;2023-07-31T10:20:09;6.10;;;3.10;;
74660;SDS011;63191;39.566;2.654;2023-07-31T10:22:36;6.60;;;2.90;;
74660;SDS011;63191;39.566;2.654;2023-07-31T10:25:02;6.90;;;2.80;;
74660;SDS011;63191;39.566;2.654;2023-07-31T10:27:29;6.60;;;2.70;;
74660;SDS011;63191;39.566;2.654;2023-07-31T10:29:56;6.10;;;2.40;;
74660;SDS011;63191;39.566;2.654;2023-07-31T10:32:24;6.80;;;2.80;;
74660;SDS011;63191;39.566;2.654;2023-07-31T10:34:51;6.30;;;2.40;;
74660;SDS011;63191;39.566;2.654;2023-07-31T10:37:21;12.10;;;3.00;;
74660;SDS011;63191;39.566;2.654;2023-07-31T10:42:27;7.00;;;2.50;;
74660;SDS011;63191;39.566;2.654;2023-07-31T10:45:06;7.70;;;2.50;;
74660;SDS011;63191;39.566;2.654;2023-07-31T10:47:42;6.10;;;2.80;;
74660;SDS011;63191;39.566;2.654;2023-07-31T10:50:19;8.40;;;2.70;;
74660;SDS011;63191;39.566;2.654;2023-07-31T10:52:52;8.60;;;2.50;;
74660;SDS011;63191;39.566;2.654;2023-07-31T10:55:27;7.00;;;2.60;;
74660;SDS011;63191;39.566;2.654;2023-07-31T10:58:06;6.70;;;2.70;;
74660;SDS011;63191;39.566;2.654;2023-07-31T11:00:43;7.70;;;2.80;;
74660;SDS011;63191;39.566;2.654;2023-07-31T11:03:12;7.10;;;2.60;;
74660;SDS011;63191;39.566;2.654;2023-07-31T11:05:44;7.60;;;2.80;;
74660;SDS011;63191;39.566;2.654;2023-07-31T11:08:18;6.10;;;2.50;;
74660;SDS011;63191;39.566;2.654;2023-07-31T11:13:49;7.70;;;3.10;;
74660;SDS011;63191;39.566;2.654;2023-07-31T11:16:21;6.20;;;2.80;;
74660;SDS011;63191;39.566;2.654;2023-07-31T11:18:51;8.90;;;2.80;;
74660;SDS011;63191;39.566;2.654;2023-07-31T11:21:24;8.10;;;3.10;;
74660;SDS011;63191;39.566;2.654;2023-07-31T11:23:56;7.40;;;2.80;;
74660;SDS011;63191;39.566;2.654;2023-07-31T11:26:23;7.00;;;2.90;;
74660;SDS011;63191;39.566;2.654;2023-07-31T11:28:50;7.20;;;3.10;;
74660;SDS011;63191;39.566;2.654;2023-07-31T11:31:17;8.20;;;3.10;;
74660;SDS011;63191;39.566;2.654;2023-07-31T11:33:44;7.90;;;3.20;;
74660;SDS011;63191;39.566;2.654;2023-07-31T11:36:17;6.70;;;3.20;;
74660;SDS011;63191;39.566;2.654;2023-07-31T11:38:44;7.80;;;3.20;;
74660;SDS011;63191;39.566;2.654;2023-07-31T11:41:13;9.20;;;3.20;;
74660;SDS011;63191;39.566;2.654;2023-07-31T11:43:44;10.60;;;3.40;;
74660;SDS011;63191;39.566;2.654;2023-07-31T11:46:11;8.30;;;3.30;;
74660;SDS011;63191;39.566;2.654;2023-07-31T11:48:37;9.70;;;3.40;;
74660;SDS011;63191;39.566;2.654;2023-07-31T11:51:05;6.90;;;3.90;;
74660;SDS011;63191;39.566;2.654;2023-07-31T11:53:40;7.40;;;3.60;;
74660;SDS011;63191;39.566;2.654;2023-07-31T11:56:09;8.70;;;3.70;;
74660;SDS011;63191;39.566;2.654;2023-07-31T11:58:37;7.80;;;3.60;;
74660;SDS011;63191;39.566;2.654;2023-07-31T12:01:05;7.70;;;3.90;;
74660;SDS011;63191;39.566;2.654;2023-07-31T12:03:32;7.80;;;3.60;;
74660;SDS011;63191;39.566;2.654;2023-07-31T12:05:58;8.30;;;4.10;;
74660;SDS011;63191;39.566;2.654;2023-07-31T12:08:25;7.60;;;3.40;;
74660;SDS011;63191;39.566;2.654;2023-07-31T12:10:52;8.70;;;4.10;;
74660;SDS011;63191;39.566;2.654;2023-07-31T12:13:24;8.10;;;4.30;;
74660;SDS011;63191;39.566;2.654;2023-07-31T12:15:55;7.00;;;4.30;;
74660;SDS011;63191;39.566;2.654;2023-07-31T12:18:24;7.10;;;4.40;;
74660;SDS011;63191;39.566;2.654;2023-07-31T12:20:57;9.30;;;5.30;;
74660;SDS011;63191;39.566;2.654;2023-07-31T12:23:44;9.70;;;6.00;;
74660;SDS011;63191;39.566;2.654;2023-07-31T12:26:12;9.80;;;6.40;;
74660;SDS011;63191;39.566;2.654;2023-07-31T12:28:44;9.10;;;7.20;;
74660;SDS011;63191;39.566;2.654;2023-07-31T12:31:22;11.80;;;7.90;;
74660;SDS011;63191;39.566;2.654;2023-07-31T12:33:49;9.50;;;8.40;;
74660;SDS011;63191;39.566;2.654;2023-07-31T12:36:20;10.30;;;9.40;;
74660;SDS011;63191;39.566;2.654;2023-07-31T12:38:47;12.20;;;11.00;;
74660;SDS011;63191;39.566;2.654;2023-07-31T12:41:13;12.70;;;11.60;;
74660;SDS011;63191;39.566;2.654;2023-07-31T12:43:41;14.00;;;12.90;;
74660;SDS011;63191;39.566;2.654;2023-07-31T12:46:08;16.10;;;14.70;;
74660;SDS011;63191;39.566;2.654;2023-07-31T12:48:34;17.20;;;15.90;;
74660;SDS011;63191;39.566;2.654;2023-07-31T12:51:02;22.00;;;20.50;;
74660;SDS011;63191;39.566;2.654;2023-07-31T12:53:28;22.70;;;21.20;;
74660;SDS011;63191;39.566;2.654;2023-07-31T12:55:55;25.40;;;23.70;;
74660;SDS011;63191;39.566;2.654;2023-07-31T12:58:21;25.80;;;24.10;;
74660;SDS011;63191;39.566;2.654;2023-07-31T13:00:47;28.60;;;26.80;;
74660;SDS011;63191;39.566;2.654;2023-07-31T13:03:13;30.00;;;28.20;;
74660;SDS011;63191;39.566;2.654;2023-07-31T13:05:40;34.70;;;32.50;;
74660;SDS011;63191;39.566;2.654;2023-07-31T13:08:06;35.20;;;33.00;;
74660;SDS011;63191;39.566;2.654;2023-07-31T13:10:32;35.30;;;33.20;;
74660;SDS011;63191;39.566;2.654;2023-07-31T13:12:59;37.80;;;35.60;;
74660;SDS011;63191;39.566;2.654;2023-07-31T13:15:25;44.30;;;41.70;;
74660;SDS011;63191;39.566;2.654;2023-07-31T13:17:51;42.80;;;40.30;;
74660;SDS011;63191;39.566;2.654;2023-07-31T13:20:17;44.60;;;42.00;;
74660;SDS011;63191;39.566;2.654;2023-07-31T13:22:42;44.40;;;42.00;;
74660;SDS011;63191;39.566;2.654;2023-07-31T13:25:08;44.80;;;42.30;;
74660;SDS011;63191;39.566;2.654;2023-07-31T13:27:35;46.40;;;43.70;;
74660;SDS011;63191;39.566;2.654;2023-07-31T13:30:01;46.10;;;43.50;;
74660;SDS011;63191;39.566;2.654;2023-07-31T13:32:27;45.60;;;43.00;;
74660;SDS011;63191;39.566;2.654;2023-07-31T13:34:52;45.20;;;42.80;;
74660;SDS011;63191;39.566;2.654;2023-07-31T13:37:18;48.20;;;45.50;;
74660;SDS011;63191;39.566;2.654;2023-07-31T13:39:44;49.30;;;46.60;;
74660;SDS011;63191;39.566;2.654;2023-07-31T13:42:10;49.40;;;46.60;;
74660;SDS011;63191;39.566;2.654;2023-07-31T13:44:41;45.40;;;42.90;;
74660;SDS011;63191;39.566;2.654;2023-07-31T13:47:08;47.50;;;44.70;;
74660;SDS011;63191;39.566;2.654;2023-07-31T13:49:34;50.90;;;48.20;;
74660;SDS011;63191;39.566;2.654;2023-07-31T13:52:01;50.80;;;48.00;;
74660;SDS011;63191;39.566;2.654;2023-07-31T13:54:27;50.80;;;48.10;;
74660;SDS011;63191;39.566;2.654;2023-07-31T13:56:53;49.10;;;46.40;;
74660;SDS011;63191;39.566;2.654;2023-07-31T13:59:19;49.40;;;46.60;;
74660;SDS011;63191;39.566;2.654;2023-07-31T14:01:45;49.00;;;46.30;;
74660;SDS011;63191;39.566;2.654;2023-07-31T14:04:11;49.40;;;46.90;;
74660;SDS011;63191;39.566;2.654;2023-07-31T14:06:37;50.70;;;48.00;;
74660;SDS011;63191;39.566;2.654;2023-07-31T14:09:03;52.20;;;49.40;;
74660;SDS011;63191;39.566;2.654;2023-07-31T14:11:33;50.80;;;48.10;;
74660;SDS011;63191;39.566;2.654;2023-07-31T14:13:58;52.30;;;49.40;;
74660;SDS011;63191;39.566;2.654;2023-07-31T14:16:24;50.80;;;48.10;;
74660;SDS011;63191;39.566;2.654;2023-07-31T14:18:50;51.80;;;49.00;;
74660;SDS011;63191;39.566;2.654;2023-07-31T14:21:17;51.40;;;48.60;;
74660;SDS011;63191;39.566;2.654;2023-07-31T14:23:44;51.20;;;48.50;;
74660;SDS011;63191;39.566;2.654;2023-07-31T14:26:10;51.90;;;49.10;;
74660;SDS011;63191;39.566;2.654;2023-07-31T14:28:36;50.30;;;47.60;;
74660;SDS011;63191;39.566;2.654;2023-07-31T14:31:02;52.10;;;49.40;;
74660;SDS011;63191;39.566;2.654;2023-07-31T14:33:28;49.60;;;46.80;;
74660;SDS011;63191;39.566;2.654;2023-07-31T14:35:54;48.00;;;45.40;;
74660;SDS011;63191;39.566;2.654;2023-07-31T14:38:19;46.00;;;43.40;;
74660;SDS011;63191;39.566;2.654;2023-07-31T14:40:45;47.10;;;44.50;;
74660;SDS011;63191;39.566;2.654;2023-07-31T14:43:11;47.80;;;45.30;;
74660;SDS011;63191;39.566;2.654;2023-07-31T14:45:37;47.40;;;44.90;;
74660;SDS011;63191;39.566;2.654;2023-07-31T14:48:03;47.90;;;45.30;;
74660;SDS011;63191;39.566;2.654;2023-07-31T14:50:29;47.30;;;44.80;;
74660;SDS011;63191;39.566;2.654;2023-07-31T14:52:55;44.70;;;42.30;;
74660;SDS011;63191;39.566;2.654;2023-07-31T14:55:21;45.00;;;42.40;;
74660;SDS011;63191;39.566;2.654;2023-07-31T14:57:47;43.80;;;41.40;;
74660;SDS011;63191;39.566;2.654;2023-07-31T15:00:13;43.70;;;41.30;;
74660;SDS011;63191;39.566;2.654;2023-07-31T15:02:40;44.10;;;41.60;;
74660;SDS011;63191;39.566;2.654;2023-07-31T15:05:06;42.70;;;40.40;;